Nearby METAR Reports


KANE - Minneapls/Blaine, Minnesota, USA
Distance from station: ESE 8mi, 13km
Updated: 06/26/2022 11:50am
Partly cloudy
Partly cloudy
 Wind from WNW
Wind: WNW 17 mph , 28 km/h, Gust: 25 mph , 41 km/h
Temperature: 70°F , 21°C
Dew Point: 46°F , 8°C
Humidity: 43%
Barometer: 30.15 inHg , 1021 hPa
Clouds: Partly cloudy
Visibility: 10 miles , 16 km
Cloud details: Partly cloudy 5000 ft
2022/06/26 16:50 KANE 261650Z 29015G22KT 10SM SCT050 21/08 A3015
KMIC - Mnpls/Crystal, Minnesota, USA
Distance from station: S 8mi, 14km
Updated: 06/26/2022 11:53am
Partly cloudy
Partly cloudy
 Wind from WNW
Wind: WNW 20 mph , 31 km/h, Gust: 39 mph , 63 km/h
Temperature: 70°F , 21°C
Dew Point: 45°F , 7°C
Humidity: 40%
Barometer: 30.15 inHg , 1021 hPa
Clouds: Partly cloudy
Visibility: 10 miles , 16 km
Cloud details: Partly cloudy 5500 ft
2022/06/26 16:53 KMIC 261653Z 30017G34KT 10SM SCT055 21/07 A3015 RMK AO2 PK WND 31034/1650 SLP208 T02110072 $
 
KMSP - Minneapolis, Minnesota, USA
Distance from station: SSE 22mi, 35km
Updated: 06/26/2022 11:53am
Partly cloudy
Partly cloudy
 Wind from WNW
Wind: WNW 21 mph , 33 km/h, Gust: 32 mph , 52 km/h
Temperature: 70°F , 21°C
Dew Point: 43°F , 6°C
Humidity: 38%
Barometer: 30.16 inHg , 1021.3 hPa
Clouds: Partly cloudy
Visibility: 10 miles , 16 km
Cloud details: Partly cloudy 6000 ft
2022/06/26 16:53 KMSP 261653Z 29018G28KT 10SM SCT060 21/06 A3016 RMK AO2 PK WND 28034/1602 SLP211 T02060061
KSTP - St. Paul, Minnesota, USA
Distance from station: SE 23mi, 38km
Updated: 06/26/2022 11:53am
Mostly cloudy
Mostly cloudy
 Wind from NW
Wind: NW 24 mph , 39 km/h, Gust: 37 mph , 59 km/h
Temperature: 72°F , 22°C
Dew Point: 45°F , 7°C
Humidity: 38%
Barometer: 30.16 inHg , 1021.3 hPa
Clouds: Mostly cloudy
Visibility: 10 miles , 16 km
Cloud details: Mostly cloudy 6000 ft
2022/06/26 16:53 KSTP 261653Z 32021G32KT 10SM BKN060 22/07 A3016 RMK AO2 PK WND 32032/1653 SLP209 T02170067
 
KCFE - Buffalo Muni, Minnesota, USA
Distance from station: W 24mi, 38km
Updated: 06/26/2022 12:15pm
Partly cloudy
Partly cloudy
 Wind from W
Wind: W 17 mph , 28 km/h, Gust: 28 mph , 44 km/h
Temperature: 68°F , 20°C
Dew Point: 46°F , 8°C
Humidity: 46%
Barometer: 30.18 inHg , 1022 hPa
Clouds: Partly cloudy
Visibility: 10 miles , 16 km
Cloud details: Partly cloudy 5000 ft
Partly cloudy 6000 ft
2022/06/26 17:15 KCFE 261715Z AUTO 28015G24KT 10SM SCT050 SCT060 20/08 A3018 RMK AO2
KFCM - Mnpls/Flying Cld, Minnesota, USA
Distance from station: S 25mi, 40km
Updated: 06/26/2022 11:53am
Few Clouds
Few Clouds
 Wind from W
Wind: W 14 mph , 22 km/h, Gust: 26 mph , 43 km/h
Temperature: 70°F , 21°C
Dew Point: 45°F , 7°C
Humidity: 40%
Barometer: 30.17 inHg , 1021.7 hPa
Clouds: Few Clouds
Visibility: 10 miles , 16 km
Cloud details: Few Clouds 6000 ft
2022/06/26 16:53 KFCM 261653Z 28012G23KT 10SM FEW060 21/07 A3017 RMK AO2 SLP213 T02110067
 
KCBG - Cambridge Muni, Minnesota, USA
Distance from station: N 27mi, 43km
Updated: 06/26/2022 12:15pm
Partly cloudy
Partly cloudy
 Wind from W
Wind: W 14 mph , 22 km/h, Gust: 25 mph , 41 km/h
Temperature: 68°F , 20°C
Dew Point: 48°F , 9°C
Humidity: 49%
Barometer: 30.14 inHg , 1020.7 hPa
Clouds: Partly cloudy
Visibility: 10 miles , 16 km
Cloud details: Partly cloudy 5000 ft
Partly cloudy 6500 ft
Partly cloudy 7000 ft
2022/06/26 17:15 KCBG 261715Z AUTO 28012G22KT 10SM SCT050 SCT065 SCT070 20/09 A3014 RMK AO2
KPNM - Princeton Muni, Minnesota, USA
Distance from station: NNW 27mi, 44km
Updated: 06/26/2022 12:15pm
Mostly cloudy
Mostly cloudy
 Wind from WNW
Wind: WNW 17 mph , 28 km/h, Gust: 28 mph , 44 km/h
Temperature: 68°F , 20°C
Dew Point: 46°F , 8°C
Humidity: 46%
Barometer: 30.15 inHg , 1021 hPa
Clouds: Mostly cloudy
Visibility: 10 miles , 16 km
Cloud details: Partly cloudy 5000 ft
Mostly cloudy 6000 ft
2022/06/26 17:15 KPNM 261715Z AUTO 29015G24KT 10SM SCT050 BKN060 20/08 A3015 RMK AO2 TSNO
 
K21D - Lake Elmo, Minnesota, USA
Distance from station: ESE 28mi, 46km
Updated: 06/26/2022 12:15pm
Mostly cloudy
Mostly cloudy
 Wind from W
Wind: W 15 mph , 24 km/h, Gust: 28 mph , 44 km/h
Temperature: 68°F , 20°C
Dew Point: 45°F , 7°C
Humidity: 43%
Barometer: 30.16 inHg , 1021.3 hPa
Clouds: Mostly cloudy
Visibility: 10 miles , 16 km
Cloud details: Mostly cloudy 5000 ft
2022/06/26 17:15 K21D 261715Z AUTO 28013G24KT 10SM BKN050 20/07 A3016 RMK AO2
KSGS - South St Paul, Minnesota, USA
Distance from station: SE 28mi, 46km
Updated: 06/26/2022 12:15pm
Clear
Clear
 Wind from NW
Wind: NW 17 mph , 28 km/h, Gust: 29 mph , 46 km/h
Temperature: 70°F , 21°C
Dew Point: 41°F , 5°C
Humidity: 35%
Barometer: 30.15 inHg , 1021 hPa
Clouds: Clear
Visibility: 10 miles , 16 km
2022/06/26 17:15 KSGS 261715Z AUTO 32015G25KT 10SM CLR 21/05 A3015 RMK AO2 T02130051
 
KMGG - Maple Lake, Minnesota, USA
Distance from station: W 30mi, 48km
Updated: 06/26/2022 12:25pm
Mostly cloudy
Mostly cloudy
 Wind from WNW
Wind: WNW 18 mph , 30 km/h, Gust: 25 mph , 41 km/h
Temperature: 68°F , 20°C
Dew Point: 43°F , 6°C
Humidity: 40%
Barometer: 30.19 inHg , 1022.4 hPa
Clouds: Mostly cloudy
Visibility: 10 miles , 16 km
Cloud details: Partly cloudy 4900 ft
Mostly cloudy 6000 ft
2022/06/26 17:25 KMGG 261725Z AUTO 30016G22KT 250V320 10SM SCT049 BKN060 20/06 A3019 RMK AO2
KOEO - Osceola, Wisconsin, USA
Distance from station: ENE 34mi, 55km
Updated: 06/26/2022 12:15pm
Mostly cloudy
Mostly cloudy
 Wind from W
Wind: W 15 mph , 24 km/h, Gust: 23 mph , 37 km/h
Temperature: 70°F , 21°C
Dew Point: 50°F , 10°C
Humidity: 50%
Barometer: 30.17 inHg , 1021.7 hPa
Clouds: Mostly cloudy
Visibility: 10 miles , 16 km
Cloud details: Partly cloudy 5000 ft
Mostly cloudy 6000 ft
Mostly cloudy 7000 ft
2022/06/26 17:15 KOEO 261715Z AUTO 28013G20KT 10SM SCT050 BKN060 BKN070 21/10 A3017 RMK AO2 T02140099
 
KLVN - Mnpls/Airlake, Minnesota, USA
Distance from station: S 39mi, 63km
Updated: 06/26/2022 12:15pm
Clear
Clear
 Wind from WNW
Wind: WNW 20 mph , 31 km/h, Gust: 28 mph , 44 km/h
Temperature: 70°F , 21°C
Dew Point: 39°F , 4°C
Humidity: 33%
Barometer: 30.17 inHg , 1021.7 hPa
Clouds: Clear
Visibility: 10 miles , 16 km
2022/06/26 17:15 KLVN 261715Z AUTO 29017G24KT 10SM CLR 21/04 A3017 RMK AO2
KRNH - New Richmond Mun, Wisconsin, USA
Distance from station: E 41mi, 66km
Updated: 06/26/2022 12:15pm
Mostly cloudy
Mostly cloudy
 Wind from WNW
Wind: WNW 20 mph , 31 km/h, Gust: 24 mph , 39 km/h
Temperature: 66°F , 19°C
Dew Point: 43°F , 6°C
Humidity: 43%
Barometer: 30.14 inHg , 1020.7 hPa
Clouds: Mostly cloudy
Visibility: 10 miles , 16 km
Cloud details: Partly cloudy 4700 ft
Mostly cloudy 5000 ft
Mostly cloudy 6500 ft
2022/06/26 17:15 KRNH 261715Z AUTO 29017G21KT 10SM SCT047 BKN050 BKN065 19/06 A3014 RMK AO2 T01920063
 
KROS - Rush City, Minnesota, USA
Distance from station: NNE 41mi, 66km
Updated: 06/26/2022 12:15pm
Mostly cloudy
Mostly cloudy
 Wind from WNW
Wind: WNW 14 mph , 22 km/h, Gust: 21 mph , 33 km/h
Temperature: 64°F , 18°C
Dew Point: 46°F , 8°C
Humidity: 52%
Barometer: 30.12 inHg , 1020 hPa
Clouds: Mostly cloudy
Visibility: 10 miles , 16 km
Cloud details: Partly cloudy 4800 ft
Mostly cloudy 5500 ft
Mostly cloudy 6500 ft
2022/06/26 17:15 KROS 261715Z AUTO 30012G18KT 10SM SCT048 BKN055 BKN065 18/08 A3012 RMK AO2 T01800080
KSTC - St. Cloud, Minnesota, USA
Distance from station: NW 41mi, 67km
Updated: 06/26/2022 11:53am
Partly cloudy
Partly cloudy
 Wind from NW
Wind: NW 16 mph , 26 km/h, Gust: 29 mph , 46 km/h
Temperature: 68°F , 20°C
Dew Point: 48°F , 9°C
Humidity: 49%
Barometer: 30.16 inHg , 1021.3 hPa
Clouds: Partly cloudy
Visibility: 10 miles , 16 km
Cloud details: Few Clouds 4800 ft
Partly cloudy 5500 ft
2022/06/26 16:53 KSTC 261653Z 32014G25KT 10SM FEW048 SCT055 20/09 A3016 RMK AO2 PK WND 30030/1627 SLP220 T02000089
 
KGYL - Glencoe, Minnesota, USA
Distance from station: SW 46mi, 74km
Updated: 06/26/2022 12:15pm
Partly cloudy
Partly cloudy
 Wind from W
Wind: W 18 mph , 30 km/h, Gust: 22 mph , 35 km/h
Temperature: 68°F , 20°C
Dew Point: 46°F , 8°C
Humidity: 46%
Barometer: 30.21 inHg , 1023 hPa
Clouds: Partly cloudy
Visibility: 7 miles , 11 km
Cloud details: Partly cloudy 5000 ft
Partly cloudy 5500 ft
2022/06/26 17:15 KGYL 261715Z AUTO 28016G19KT 7SM SCT050 SCT055 20/08 A3021 RMK AO2 T01970080
KJMR - Mora, Minnesota, USA
Distance from station: N 48mi, 78km
Updated: 06/26/2022 12:15pm
Mostly cloudy
Mostly cloudy
 Wind from NW
Wind: NW 20 mph , 31 km/h, Gust: 29 mph , 46 km/h
Temperature: 64°F , 18°C
Dew Point: 46°F , 8°C
Humidity: 52%
Barometer: 30.14 inHg , 1020.7 hPa
Clouds: Mostly cloudy
Visibility: 10 miles , 16 km
Cloud details: Partly cloudy 5000 ft
Mostly cloudy 5500 ft
2022/06/26 17:15 KJMR 261715Z AUTO 31017G25KT 10SM SCT050 BKN055 18/08 A3014 RMK AO2